createdAt,value
2022-10-04T00:04:24.609Z,99.8
2022-10-04T00:10:13.474Z,100
2022-10-04T00:16:07.227Z,100
2022-10-04T00:21:57.979Z,100
2022-10-04T00:27:48.511Z,100
2022-10-04T00:33:42.264Z,100
2022-10-04T00:39:33.643Z,100
2022-10-04T00:45:28.571Z,100
2022-10-04T00:51:19.945Z,100
2022-10-04T00:57:11.651Z,100
2022-10-04T01:03:03.262Z,100
2022-10-04T01:08:55.336Z,100
2022-10-04T01:14:46.410Z,100
2022-10-04T01:20:37.184Z,100
2022-10-04T01:26:28.059Z,100
2022-10-04T01:32:18.845Z,100
2022-10-04T01:38:09.582Z,100
2022-10-04T01:44:02.942Z,100
2022-10-04T01:49:52.506Z,100
2022-10-04T01:55:41.672Z,100
2022-10-04T02:01:32.227Z,100
2022-10-04T02:07:22.671Z,100
2022-10-04T02:13:12.586Z,100
2022-10-04T02:19:02.773Z,100
2022-10-04T02:24:52.487Z,100
2022-10-04T02:30:42.121Z,100
2022-10-04T02:36:31.806Z,100
2022-10-04T02:42:22.367Z,100
2022-10-04T02:48:14.011Z,100
2022-10-04T02:54:05.289Z,100
2022-10-04T02:59:56.254Z,100
2022-10-04T03:05:46.689Z,100
2022-10-04T03:11:36.881Z,100
2022-10-04T03:17:28.586Z,100
2022-10-04T03:23:20.989Z,100
2022-10-04T03:29:12.117Z,100
2022-10-04T03:35:02.463Z,100
2022-10-04T03:40:53.048Z,100
2022-10-04T03:46:44.096Z,100
2022-10-04T03:52:39.148Z,100
2022-10-04T03:58:30.958Z,100
2022-10-04T04:04:20.901Z,100
2022-10-04T04:10:16.960Z,100
2022-10-04T04:16:07.263Z,100
2022-10-04T04:21:58.696Z,100
2022-10-04T04:27:50.185Z,100
2022-10-04T04:33:41.863Z,100
2022-10-04T04:39:33.340Z,100
2022-10-04T04:45:22.993Z,100
2022-10-04T04:51:14.217Z,100
2022-10-04T04:57:04.482Z,100
2022-10-04T05:02:59.765Z,100
2022-10-04T05:08:49.800Z,100
2022-10-04T05:14:40.661Z,100
2022-10-04T05:20:32.483Z,100
2022-10-04T05:26:23.706Z,100
2022-10-04T05:32:15.313Z,100
2022-10-04T05:38:07.247Z,100
2022-10-04T05:44:01.055Z,100
2022-10-04T05:49:53.620Z,100
2022-10-04T05:55:46.607Z,100
2022-10-04T06:01:37.948Z,100
2022-10-04T06:07:30.340Z,100
2022-10-04T06:13:23.356Z,100
2022-10-04T06:19:14.425Z,100
2022-10-04T07:57:09.186Z,100
2022-10-04T08:03:31.877Z,100
2022-10-04T09:35:32.646Z,93.6
2022-10-04T09:48:52.171Z,90.9
2022-10-04T09:55:11.989Z,90.1
2022-10-04T10:01:31.211Z,90.2
2022-10-04T10:07:41.039Z,89.3
2022-10-04T10:13:43.036Z,88.2
2022-10-04T10:32:11.001Z,86.9
2022-10-04T10:38:21.327Z,84.5
2022-10-04T10:52:13.576Z,82.1
2022-10-04T11:04:47.582Z,82.1
2022-10-04T11:10:49.987Z,81.7
2022-10-04T11:23:34.360Z,79.1
2022-10-04T11:48:07.319Z,79
2022-10-04T11:54:09.452Z,78.6
2022-10-04T12:00:34.383Z,77.9
2022-10-04T12:06:32.145Z,77.7
2022-10-04T12:12:41.311Z,78.1
2022-10-04T12:18:46.284Z,78.6
2022-10-04T12:24:45.433Z,78.3
2022-10-04T12:31:19.579Z,77.1
2022-10-04T12:37:10.646Z,75.8
2022-10-04T12:43:05.486Z,76.3
2022-10-04T12:49:08.817Z,76
2022-10-04T12:55:01.510Z,75.8
2022-10-04T13:00:51.171Z,74.8
2022-10-04T13:06:48.811Z,75.6
2022-10-04T13:12:42.694Z,74.5
2022-10-04T13:18:34.421Z,74.2
2022-10-04T13:24:27.912Z,74
2022-10-04T13:30:21.949Z,73.6
2022-10-04T13:36:22.856Z,74.2
2022-10-04T13:42:14.787Z,74.2
2022-10-04T13:48:21.587Z,73.8
2022-10-04T13:54:12.846Z,72.6
2022-10-04T14:00:05.603Z,72.6
2022-10-04T14:05:58.491Z,71.1
2022-10-04T14:11:49.552Z,70.1
2022-10-04T14:17:50.005Z,70.8
2022-10-04T14:23:41.846Z,71.1
2022-10-04T14:29:34.713Z,71.1
2022-10-04T14:35:27.858Z,70.6
2022-10-04T14:41:19.846Z,69.9
2022-10-04T14:47:13.474Z,70.2
2022-10-04T14:53:05.377Z,69.3
2022-10-04T14:59:02.303Z,70
2022-10-04T15:04:57.866Z,68.9
2022-10-04T15:10:57.938Z,69
2022-10-04T15:23:21.530Z,69.7
2022-10-04T15:29:14.998Z,68.7
2022-10-04T15:35:05.967Z,69.1
2022-10-04T15:40:56.756Z,69.5
2022-10-04T15:46:50.128Z,69.3
2022-10-04T15:52:40.727Z,70.5
2022-10-04T15:58:30.961Z,71.7
2022-10-04T16:04:22.003Z,72.2
2022-10-04T16:10:21.780Z,72.5
2022-10-04T16:16:13.571Z,72.4
2022-10-04T16:22:11.068Z,72.8
2022-10-04T16:28:01.754Z,72.8
2022-10-04T16:33:53.999Z,74
2022-10-04T16:39:47.744Z,76.4
2022-10-04T16:45:39.208Z,76.3
2022-10-04T16:51:30.773Z,77.2
2022-10-04T16:57:20.352Z,77.4
2022-10-04T17:03:11.163Z,78.9
2022-10-04T17:09:01.423Z,81.6
2022-10-04T17:14:52.744Z,81.3
2022-10-04T17:20:42.726Z,80
2022-10-04T17:26:35.049Z,79.9
2022-10-04T17:32:25.330Z,79.4
2022-10-04T17:38:15.226Z,79.7
2022-10-04T17:44:06.665Z,79.3
2022-10-04T17:49:56.674Z,79.4
2022-10-04T17:55:46.608Z,79.3
2022-10-04T18:01:36.981Z,79.3
2022-10-04T18:07:29.428Z,79.1
2022-10-04T18:13:18.426Z,79.4
2022-10-04T18:19:09.456Z,79.7
2022-10-04T18:24:59.465Z,79.5
2022-10-04T18:30:50.044Z,80.3
2022-10-04T18:36:41.379Z,80.4
2022-10-04T18:42:33.575Z,78.5
2022-10-04T18:48:23.090Z,79.6
2022-10-04T18:54:13.905Z,82.1
2022-10-04T19:00:04.614Z,82.3
2022-10-04T19:05:54.936Z,82.3
2022-10-04T19:11:45.260Z,83.9
2022-10-04T19:17:37.369Z,81.8
2022-10-04T19:23:27.809Z,82.7
2022-10-04T19:29:23.050Z,84.7
2022-10-04T19:35:13.488Z,87
2022-10-04T19:41:04.111Z,87
2022-10-04T19:46:54.744Z,87.1
2022-10-04T19:52:46.166Z,88
2022-10-04T19:58:40.685Z,88.6
2022-10-04T20:04:34.005Z,88.9
2022-10-04T20:10:24.591Z,89.2
2022-10-04T20:16:16.354Z,89.7
2022-10-04T20:22:10.107Z,90.4
2022-10-04T20:28:04.214Z,91.3
2022-10-04T20:33:55.457Z,92.9
2022-10-04T20:39:52.210Z,92
2022-10-04T20:45:44.990Z,92.6
2022-10-04T20:51:36.398Z,92.8
2022-10-04T20:57:30.569Z,92.9
2022-10-04T21:03:28.405Z,93.2
2022-10-04T21:09:18.319Z,94.5
2022-10-04T21:15:11.264Z,93.5
2022-10-04T21:21:05.588Z,93.7
2022-10-04T21:26:55.571Z,94.4
2022-10-04T21:32:45.353Z,95.3
2022-10-04T21:38:35.766Z,96
2022-10-04T21:44:25.995Z,95.8
2022-10-04T21:50:15.857Z,96
2022-10-04T21:56:05.232Z,97.7
2022-10-04T22:01:54.132Z,98
2022-10-04T22:07:43.805Z,98.8
2022-10-04T22:13:31.907Z,99.6
2022-10-04T22:19:19.995Z,99.9
2022-10-04T22:25:10.933Z,100
2022-10-04T22:30:59.311Z,100
2022-10-04T22:36:48.432Z,100
2022-10-04T22:42:38.096Z,100
2022-10-04T22:48:26.526Z,100
2022-10-04T22:54:15.192Z,100
2022-10-04T23:00:03.709Z,100
2022-10-04T23:05:51.782Z,100
2022-10-04T23:11:40.105Z,100
2022-10-04T23:17:29.839Z,100
2022-10-04T23:23:18.110Z,100
2022-10-04T23:29:07.050Z,100
2022-10-04T23:34:58.562Z,100
2022-10-04T23:40:47.202Z,100
2022-10-04T23:46:35.694Z,100
2022-10-04T23:52:24.260Z,100
2022-10-04T23:58:12.828Z,100
